Weather History for KBYY - November, 2012

Change the Weather History Date:

Wednesday, November 14, 2012

  Actual Average (KPSX) Record (KPSX)
Temperature  
Mean Temperature 53 °F -  
Max Temperature 65 °F 71 °F - (-1)
Min Temperature 41 °F 53 °F - (-1)
Degree Days  
Heating Degree Days 12    
Growing Degree Days 3 (Base 50)    
Moisture  
Dew Point 36 °F    
Average Humidity 53    
Maximum Humidity 88    
Minimum Humidity 27    
Precipitation  
Precipitation 0.00 in - - ()
Sea Level Pressure  
Sea Level Pressure 30.33 in    
Wind  
Wind Speed 5 mph (NNE)    
Max Wind Speed 12 mph    
Max Gust Speed 16 mph    
Visibility 10 miles    
Events      
Averages and records for this station are not official NWS values.
T = Trace of Precipitation, MM = Missing Value Source: NWS Daily Summary

Daily Weather History Graph

Daily Weather History Graph

Search for Another Location

Airport or City:

Trip Planner

Search our weather history database for the weather conditions in past years. The results will help you decide how hot, cold, wet, or windy it might be!

Date:

Astronomy

Nov. 14, 2012 Rise Set
Actual Time 6:46 AM CST 5:29 PM CST
Civil Twilight 6:21 AM CST 5:54 PM CST
Nautical Twilight 5:52 AM CST 6:22 PM CST
Astronomical Twilight 5:24 AM CST 6:51 PM CST
Moon 7:32 AM CST (11/14) 6:23 PM CST (11/14)
Length of Visible Light 11h 33m
Length of Day
10h 43m
New Moon, 1% of the Moon is Illuminated
Nov 14
New Moon
Nov 20
First Quarter
Nov 28
Full
Dec 6
Last Quarter
Dec 13
New

Hourly Weather History & Observations

Time (CST) Temp. Dew Point Humidity Pressure Visibility Wind Dir Wind Speed Gust Speed Precip Events Conditions
12:15 AM 50.9 °F 39.0 °F 64% 30.34 in 10.0 mi NNE 4.6 mph - N/A   Overcast
12:35 AM 51.8 °F 37.4 °F 58% 30.35 in 10.0 mi NNE 4.6 mph - N/A   Overcast
12:55 AM 52.2 °F 38.3 °F 59% 30.34 in 10.0 mi NNE 4.6 mph - N/A   Overcast
1:15 AM 52.3 °F 38.1 °F 58% 30.34 in 10.0 mi NE 5.8 mph - N/A   Overcast
1:35 AM 51.8 °F 38.5 °F 60% 30.34 in 10.0 mi NNE 5.8 mph - N/A   Mostly Cloudy
1:55 AM 51.3 °F 38.7 °F 62% 30.32 in 10.0 mi NE 9.2 mph - N/A   Scattered Clouds
2:15 AM 51.6 °F 38.3 °F 60% 30.33 in 10.0 mi NE 9.2 mph - N/A   Scattered Clouds
2:35 AM 52.5 °F 37.8 °F 57% 30.34 in 10.0 mi NE 6.9 mph - N/A   Overcast
2:55 AM 52.7 °F 37.8 °F 57% 30.34 in 10.0 mi NNE 5.8 mph - N/A   Overcast
3:15 AM 52.3 °F 38.8 °F 60% 30.34 in 10.0 mi NNE 4.6 mph - N/A   Overcast
3:35 AM 52.0 °F 39.0 °F 61% 30.34 in 10.0 mi NNE 4.6 mph - N/A   Overcast
3:55 AM 52.2 °F 38.8 °F 60% 30.34 in 10.0 mi NNE 4.6 mph - N/A   Overcast
4:15 AM 52.2 °F 39.0 °F 61% 30.34 in 10.0 mi NNE 4.6 mph - N/A   Overcast
4:35 AM 52.0 °F 39.2 °F 62% 30.34 in 10.0 mi NNE 5.8 mph - N/A   Overcast
4:55 AM 52.0 °F 39.2 °F 62% 30.34 in 10.0 mi NNE 3.5 mph - N/A   Overcast
5:15 AM 52.0 °F 39.2 °F 62% 30.34 in 10.0 mi North 4.6 mph - N/A   Overcast
5:35 AM 52.0 °F 39.0 °F 61% 30.35 in 10.0 mi NNE 3.5 mph - N/A   Overcast
5:55 AM 52.0 °F 38.8 °F 61% 30.35 in 10.0 mi Calm Calm - N/A   Overcast
6:15 AM 52.2 °F 39.2 °F 61% 30.35 in 10.0 mi Calm Calm - N/A   Overcast
6:35 AM 52.2 °F 39.6 °F 62% 30.35 in 10.0 mi North 3.5 mph - N/A   Overcast
6:55 AM 52.2 °F 39.9 °F 63% 30.35 in 10.0 mi Calm Calm - N/A   Overcast
7:15 AM 52.2 °F 40.1 °F 64% 30.35 in 10.0 mi NNE 3.5 mph - N/A   Overcast
7:35 AM 52.5 °F 40.1 °F 63% 30.36 in 10.0 mi NNE 4.6 mph - N/A   Overcast
7:55 AM 53.1 °F 40.3 °F 62% 30.36 in 10.0 mi NNE 4.6 mph - N/A   Overcast
8:15 AM 54.0 °F 39.9 °F 59% 30.37 in 10.0 mi NNE 5.8 mph - N/A   Overcast
8:35 AM 54.3 °F 40.1 °F 59% 30.39 in 10.0 mi NNE 6.9 mph - N/A   Overcast
8:55 AM 55.0 °F 39.7 °F 56% 30.39 in 10.0 mi NNE 6.9 mph - N/A   Overcast
9:15 AM 55.8 °F 39.4 °F 54% 30.39 in 10.0 mi NNE 6.9 mph - N/A   Overcast
9:35 AM 56.3 °F 39.0 °F 52% 30.39 in 10.0 mi NNE 10.4 mph - N/A   Overcast
9:55 AM 57.6 °F 38.1 °F 48% 30.40 in 10.0 mi NNE 6.9 mph - N/A   Overcast
10:15 AM 58.6 °F 36.7 °F 44% 30.39 in 10.0 mi NNE 9.2 mph - N/A   Overcast
10:35 AM 59.4 °F 34.9 °F 40% 30.39 in 10.0 mi NNE 6.9 mph 16.1 mph N/A   Overcast
10:55 AM 59.9 °F 34.0 °F 38% 30.39 in 10.0 mi North 8.1 mph - N/A   Overcast
11:15 AM 60.6 °F 33.3 °F 36% 30.39 in 10.0 mi NNE 6.9 mph - N/A   Overcast
11:35 AM 62.1 °F 33.1 °F 34% 30.38 in 10.0 mi North 8.1 mph - N/A   Overcast
11:55 AM 63.3 °F 33.1 °F 32% 30.37 in 10.0 mi North 10.4 mph - N/A   Overcast
12:15 PM 63.3 °F 32.4 °F 31% 30.35 in 10.0 mi NNE 9.2 mph - N/A   Overcast
12:35 PM 63.5 °F 32.0 °F 31% 30.34 in 10.0 mi NE 11.5 mph - N/A   Overcast
12:55 PM 64.0 °F 31.3 °F 29% 30.34 in 10.0 mi North 11.5 mph - N/A   Overcast
1:15 PM 64.4 °F 30.7 °F 28% 30.32 in 10.0 mi North 8.1 mph - N/A   Overcast
1:35 PM 64.6 °F 30.9 °F 28% 30.31 in 10.0 mi North 8.1 mph - N/A   Overcast
1:55 PM 65.1 °F 31.3 °F 28% 30.30 in 10.0 mi NE 9.2 mph - N/A   Overcast
2:15 PM 65.3 °F 30.9 °F 28% 30.31 in 10.0 mi North 9.2 mph - N/A   Overcast
2:35 PM 64.4 °F 30.2 °F 28% 30.30 in 10.0 mi NE 6.9 mph - N/A   Overcast
2:55 PM 64.9 °F 29.7 °F 27% 30.29 in 10.0 mi NE 4.6 mph - N/A   Overcast
3:15 PM 64.8 °F 29.8 °F 27% 30.29 in 10.0 mi NNE 3.5 mph - N/A   Overcast
3:35 PM 64.2 °F 30.2 °F 28% 30.29 in 10.0 mi NE 4.6 mph - N/A   Overcast
3:55 PM 63.9 °F 30.6 °F 29% 30.29 in 10.0 mi North 4.6 mph - N/A   Overcast
4:15 PM 64.0 °F 30.7 °F 29% 30.29 in 10.0 mi North 4.6 mph - N/A   Overcast
4:35 PM 63.5 °F 30.4 °F 29% 30.29 in 10.0 mi NNE 3.5 mph - N/A   Overcast
4:55 PM 61.9 °F 31.3 °F 32% 30.28 in 10.0 mi North 3.5 mph - N/A   Scattered Clouds
5:15 PM 59.0 °F 32.4 °F 37% 30.28 in 10.0 mi Calm Calm - N/A   Clear
5:35 PM 57.7 °F 32.5 °F 39% 30.28 in 10.0 mi Calm Calm - N/A   Clear
5:55 PM 56.3 °F 33.4 °F 42% 30.28 in 10.0 mi North 3.5 mph - N/A   Clear
6:15 PM 54.5 °F 34.9 °F 48% 30.29 in 10.0 mi North 3.5 mph - N/A   Clear
6:35 PM 52.7 °F 35.4 °F 52% 30.29 in 10.0 mi Calm Calm - N/A   Clear
6:55 PM 51.4 °F 36.0 °F 56% 30.29 in 10.0 mi Calm Calm - N/A   Clear
7:15 PM 49.3 °F 37.4 °F 64% 30.30 in 10.0 mi Calm Calm - N/A   Clear
7:35 PM 49.3 °F 37.2 °F 63% 30.30 in 10.0 mi Calm Calm - N/A   Clear
7:55 PM 48.4 °F 37.4 °F 66% 30.31 in 10.0 mi Calm Calm - N/A   Clear
8:15 PM 48.4 °F 37.8 °F 67% 30.31 in 10.0 mi Calm Calm - N/A   Clear
8:35 PM 47.3 °F 38.3 °F 71% 30.31 in 10.0 mi Calm Calm - N/A   Clear
8:55 PM 46.2 °F 38.1 °F 73% 30.31 in 10.0 mi Calm Calm - N/A   Clear
9:15 PM 45.7 °F 37.9 °F 74% 30.31 in 10.0 mi Calm Calm - N/A   Clear
9:35 PM 44.8 °F 37.9 °F 77% 30.31 in 10.0 mi Calm Calm - N/A   Clear
9:55 PM 44.8 °F 38.1 °F 77% 30.31 in 10.0 mi Calm Calm - N/A   Clear
10:15 PM 44.6 °F 38.1 °F 78% 30.31 in 10.0 mi Calm Calm - N/A   Clear
10:35 PM 44.1 °F 38.1 °F 80% 30.31 in 10.0 mi Calm Calm - N/A   Clear
10:55 PM 43.7 °F 38.5 °F 82% 30.31 in 10.0 mi Calm Calm - N/A   Clear
11:15 PM 43.2 °F 38.3 °F 83% 30.30 in 10.0 mi Calm Calm - N/A   Clear
11:35 PM 41.7 °F 37.6 °F 85% 30.30 in 10.0 mi Calm Calm - N/A   Clear
11:55 PM 41.2 °F 37.9 °F 88% 30.29 in 10.0 mi Calm Calm - N/A   Clear